Time;durP1;ratioP1;P1;durP2;ratioP2;P2;SDS_P1;SDS_P2;PMS_P1;PMS_P2;Temp;Humidity;BMP_temperature;BMP_pressure;BME280_temperature;BME280_humidity;BME280_pressure;Samples;Min_cycle;Max_cycle;Signal;HPM_P1;HPM_P2
2022/08/07 00:01:33;;;;;;;7.78;3.45;;;23.60;51.60;;;;;;5025413;28;20028;-53
2022/08/07 00:03:59;;;;;;;8.68;3.58;;;23.60;52.60;;;;;;5026207;28;20046;-55
2022/08/07 00:06:25;;;;;;;10.60;3.75;;;23.60;51.60;;;;;;5030339;28;20025;-54
2022/08/07 00:08:51;;;;;;;7.43;3.80;;;23.60;51.60;;;;;;5024320;28;20025;-54
2022/08/07 00:11:16;;;;;;;6.75;3.50;;;23.60;51.60;;;;;;5026964;28;20502;-53
2022/08/07 00:13:44;;;;;;;7.13;3.67;;;23.50;51.60;;;;;;5022161;28;20100;-53
2022/08/07 00:16:10;;;;;;;7.38;3.55;;;23.60;51.70;;;;;;5021856;28;20666;-53
2022/08/07 00:18:35;;;;;;;9.82;3.80;;;23.50;51.70;;;;;;5025182;28;20020;-53
2022/08/07 00:21:02;;;;;;;8.95;3.67;;;23.50;51.80;;;;;;5024913;28;20433;-54
2022/08/07 00:23:29;;;;;;;8.27;3.85;;;23.50;51.70;;;;;;5022794;28;20033;-53
2022/08/07 00:25:55;;;;;;;8.32;3.70;;;23.50;51.80;;;;;;5025908;28;20441;-54
2022/08/07 00:28:21;;;;;;;9.18;4.10;;;23.50;51.80;;;;;;5024599;28;20026;-52
2022/08/07 00:30:46;;;;;;;10.40;4.22;;;23.50;51.80;;;;;;5026034;28;20022;-54
2022/08/07 00:33:12;;;;;;;7.68;3.72;;;23.50;51.80;;;;;;5026791;28;20052;-52
2022/08/07 00:35:38;;;;;;;9.32;3.50;;;23.50;51.80;;;;;;5024495;28;20527;-54
2022/08/07 00:38:03;;;;;;;6.75;3.45;;;23.50;51.80;;;;;;5026844;28;20029;-53
2022/08/07 00:40:29;;;;;;;7.47;3.65;;;23.40;51.90;;;;;;5046179;28;20096;-52
2022/08/07 00:42:55;;;;;;;7.75;3.95;;;23.40;51.80;;;;;;5025303;28;20532;-54
2022/08/07 00:45:21;;;;;;;8.30;3.67;;;23.40;51.80;;;;;;5028796;28;20041;-52
2022/08/07 00:47:47;;;;;;;7.75;4.00;;;23.40;51.90;;;;;;5029414;28;20036;-54
2022/08/07 00:50:13;;;;;;;6.82;3.60;;;23.40;51.90;;;;;;5028896;28;20451;-53
2022/08/07 00:52:38;;;;;;;7.57;3.78;;;23.40;52.00;;;;;;5029111;28;20117;-53
2022/08/07 00:55:04;;;;;;;6.70;3.65;;;23.40;51.90;;;;;;5029382;28;20076;-52
2022/08/07 00:57:30;;;;;;;9.02;4.35;;;23.40;51.90;;;;;;5030574;28;20027;-54
2022/08/07 00:59:56;;;;;;;7.78;3.63;;;23.40;52.00;;;;;;5054715;28;20104;-54
2022/08/07 01:02:22;;;;;;;7.35;3.63;;;23.40;52.00;;;;;;5030180;28;20129;-54
2022/08/07 01:04:48;;;;;;;6.85;3.67;;;23.30;52.00;;;;;;5026857;28;20041;-54
2022/08/07 01:07:14;;;;;;;9.07;3.83;;;23.40;52.00;;;;;;5031671;28;20528;-53
2022/08/07 01:09:40;;;;;;;8.25;3.70;;;23.30;52.00;;;;;;5030550;28;20550;-54
2022/08/07 01:12:05;;;;;;;7.72;3.58;;;23.30;52.00;;;;;;5028936;28;20485;-53
2022/08/07 01:14:31;;;;;;;7.97;3.80;;;23.30;52.00;;;;;;5042329;28;20445;-53
2022/08/07 01:16:58;;;;;;;7.53;3.60;;;23.30;52.00;;;;;;5029550;28;20036;-53
2022/08/07 01:19:23;;;;;;;7.63;3.80;;;23.30;52.10;;;;;;5029147;28;20064;-53
2022/08/07 01:21:50;;;;;;;6.82;3.80;;;23.30;52.10;;;;;;5055488;28;20049;-53
2022/08/07 01:24:16;;;;;;;6.47;3.72;;;23.30;52.10;;;;;;5030068;28;20084;-54
2022/08/07 01:26:42;;;;;;;7.05;3.60;;;23.30;52.10;;;;;;5029583;28;20026;-53
2022/08/07 01:29:08;;;;;;;7.40;3.65;;;23.30;52.20;;;;;;5027602;28;20071;-53
2022/08/07 01:31:34;;;;;;;7.15;3.85;;;23.30;52.20;;;;;;5028399;28;20040;-53
2022/08/07 01:34:00;;;;;;;7.05;3.90;;;23.30;52.20;;;;;;5029685;28;20030;-54
2022/08/07 01:36:26;;;;;;;8.75;4.00;;;23.30;52.20;;;;;;5027830;28;20506;-54
2022/08/07 01:38:51;;;;;;;7.28;3.70;;;23.30;52.30;;;;;;5024912;28;20033;-54
2022/08/07 01:41:18;;;;;;;7.95;3.75;;;23.20;52.20;;;;;;5028431;28;20105;-54
2022/08/07 01:43:44;;;;;;;6.05;3.50;;;23.20;52.20;;;;;;5030352;28;20029;-54
2022/08/07 01:46:10;;;;;;;6.88;3.70;;;23.20;52.20;;;;;;5051883;28;20033;-52
2022/08/07 01:48:37;;;;;;;7.82;3.80;;;23.20;52.20;;;;;;5052896;28;20021;-53
2022/08/07 01:51:04;;;;;;;7.65;3.75;;;23.20;52.20;;;;;;5027332;28;20152;-53
2022/08/07 01:53:32;;;;;;;7.55;3.97;;;23.20;52.30;;;;;;5027778;28;20505;-53
2022/08/07 01:56:09;;;;;;;7.70;3.90;;;23.20;52.30;;;;;;5023101;28;20472;-54
2022/08/07 01:58:38;;;;;;;7.85;4.20;;;23.20;52.30;;;;;;5027255;28;20026;-54
2022/08/07 02:01:09;;;;;;;6.72;3.70;;;23.20;52.30;;;;;;5033939;28;20061;-54
2022/08/07 02:03:35;;;;;;;7.00;3.47;;;23.20;52.30;;;;;;5028869;28;20021;-50
2022/08/07 02:06:05;;;;;;;6.68;3.60;;;23.20;52.30;;;;;;5028627;28;20033;-51
2022/08/07 02:08:34;;;;;;;6.68;3.63;;;23.20;52.30;;;;;;5051894;28;20021;-53
2022/08/07 02:11:00;;;;;;;7.18;3.60;;;23.20;52.50;;;;;;5026088;28;20034;-52
2022/08/07 02:13:27;;;;;;;7.20;3.67;;;23.20;52.40;;;;;;5028156;28;20047;-54
2022/08/07 02:15:53;;;;;;;8.15;4.13;;;23.10;52.40;;;;;;5027381;28;20039;-54
2022/08/07 02:18:18;;;;;;;6.43;3.65;;;23.10;52.40;;;;;;5027331;28;20032;-53
2022/08/07 02:20:45;;;;;;;8.65;4.05;;;23.10;52.40;;;;;;5027950;28;20112;-52
2022/08/07 02:23:11;;;;;;;7.35;3.83;;;23.10;52.40;;;;;;5055987;28;20068;-53
2022/08/07 02:25:37;;;;;;;6.15;3.60;;;23.10;52.40;;;;;;5028255;28;20058;-53
2022/08/07 02:28:03;;;;;;;5.75;3.20;;;23.10;52.40;;;;;;5052196;28;20463;-53
2022/08/07 02:30:29;;;;;;;7.55;3.78;;;23.10;52.40;;;;;;5024429;28;20040;-53
2022/08/07 02:32:55;;;;;;;6.00;3.38;;;23.10;52.50;;;;;;5058805;28;20029;-52
2022/08/07 02:35:21;;;;;;;7.18;4.03;;;23.10;52.50;;;;;;5057168;28;20029;-53
2022/08/07 02:37:47;;;;;;;6.32;3.45;;;23.10;52.50;;;;;;5027714;28;20503;-54
2022/08/07 02:40:13;;;;;;;7.30;3.70;;;23.10;52.60;;;;;;5027078;28;20029;-52
2022/08/07 02:42:38;;;;;;;6.63;3.42;;;23.00;52.50;;;;;;5027489;28;20108;-53
2022/08/07 02:45:05;;;;;;;6.65;3.65;;;23.00;52.50;;;;;;5026962;28;20101;-53
2022/08/07 02:47:31;;;;;;;6.05;3.42;;;23.00;52.60;;;;;;5028333;28;20025;-54
2022/08/07 02:49:57;;;;;;;6.45;3.40;;;23.00;52.50;;;;;;5026619;28;20102;-54
2022/08/07 02:52:31;;;;;;;7.43;3.53;;;23.00;52.50;;;;;;5028058;28;20017;-53
2022/08/07 02:54:58;;;;;;;7.57;3.60;;;23.00;52.50;;;;;;5049885;28;20048;-53
2022/08/07 02:57:24;;;;;;;7.18;3.70;;;23.00;52.60;;;;;;5024747;28;20024;-54
2022/08/07 02:59:50;;;;;;;7.32;3.80;;;23.00;52.60;;;;;;5025679;28;20021;-51
2022/08/07 03:02:15;;;;;;;6.15;3.67;;;23.00;52.60;;;;;;5028076;28;20029;-54
2022/08/07 03:04:43;;;;;;;6.88;3.80;;;23.00;52.60;;;;;;5010683;28;20033;-53
2022/08/07 03:07:08;;;;;;;6.70;3.75;;;23.00;52.60;;;;;;5022576;28;20044;-53
2022/08/07 03:09:34;;;;;;;7.97;4.15;;;23.00;52.70;;;;;;5026390;28;20075;-50
2022/08/07 03:12:04;;;;;;;6.63;3.50;;;23.00;52.80;;;;;;5025373;28;20044;-51
2022/08/07 03:14:30;;;;;;;7.57;3.85;;;23.00;52.80;;;;;;5028022;28;20036;-54
2022/08/07 03:16:56;;;;;;;7.97;3.85;;;23.00;52.80;;;;;;5025616;28;20041;-52
2022/08/07 03:19:21;;;;;;;6.55;3.60;;;23.00;52.80;;;;;;5025893;28;20025;-54
2022/08/07 03:21:48;;;;;;;6.68;3.33;;;23.00;52.80;;;;;;5027536;28;20562;-53
2022/08/07 03:24:14;;;;;;;6.18;3.55;;;22.90;52.80;;;;;;5025712;28;20445;-52
2022/08/07 03:26:39;;;;;;;7.32;3.80;;;22.90;52.80;;;;;;5027546;28;20026;-53
2022/08/07 03:29:06;;;;;;;5.93;3.47;;;22.90;52.80;;;;;;5054125;28;20026;-54
2022/08/07 03:31:32;;;;;;;8.73;3.78;;;22.90;52.90;;;;;;5026377;28;20025;-54
2022/08/07 03:33:59;;;;;;;6.47;3.88;;;22.90;52.90;;;;;;5028082;28;20042;-52
2022/08/07 03:36:26;;;;;;;6.90;3.50;;;22.90;52.80;;;;;;5025665;28;20030;-53
2022/08/07 03:38:52;;;;;;;8.30;3.90;;;22.90;53.00;;;;;;5023468;28;20564;-54
2022/08/07 03:41:18;;;;;;;7.20;3.80;;;22.90;52.90;;;;;;5024943;28;20025;-52
2022/08/07 03:43:43;;;;;;;5.60;3.35;;;22.90;52.90;;;;;;5050348;28;20036;-54
2022/08/07 03:46:09;;;;;;;7.28;3.70;;;22.90;53.00;;;;;;5025884;28;20021;-50
2022/08/07 03:48:35;;;;;;;6.63;3.80;;;22.90;53.00;;;;;;5025809;28;20082;-53
2022/08/07 03:51:04;;;;;;;6.53;3.60;;;22.90;53.00;;;;;;5024797;28;20025;-53
2022/08/07 03:53:29;;;;;;;7.43;4.10;;;22.80;52.90;;;;;;5025283;28;20493;-53
2022/08/07 03:55:56;;;;;;;6.40;3.75;;;22.80;52.90;;;;;;5050284;28;20077;-53
2022/08/07 03:58:22;;;;;;;6.30;3.75;;;22.90;54.10;;;;;;5025728;28;20123;-50
2022/08/07 04:00:48;;;;;;;5.68;3.40;;;22.80;53.00;;;;;;5051409;28;20101;-53
2022/08/07 04:03:15;;;;;;;7.07;4.10;;;22.80;53.00;;;;;;5025400;28;20029;-53
2022/08/07 04:05:41;;;;;;;5.70;3.70;;;22.80;53.00;;;;;;5026867;28;20120;-53
2022/08/07 04:08:11;;;;;;;6.97;4.15;;;22.80;53.00;;;;;;5027078;28;20104;-53
2022/08/07 04:10:38;;;;;;;6.95;3.47;;;22.80;53.00;;;;;;5025749;28;20029;-53
2022/08/07 04:13:06;;;;;;;6.03;3.58;;;22.80;53.00;;;;;;5026171;28;20562;-54
2022/08/07 04:15:32;;;;;;;6.28;3.90;;;22.80;53.00;;;;;;5026215;28;20034;-55
2022/08/07 04:17:58;;;;;;;6.03;3.38;;;22.80;53.00;;;;;;5024254;28;20021;-53
2022/08/07 04:20:23;;;;;;;7.72;3.63;;;22.80;53.10;;;;;;5027594;28;20410;-52
2022/08/07 04:22:49;;;;;;;6.55;3.60;;;22.80;53.10;;;;;;5024597;28;20061;-54
2022/08/07 04:25:14;;;;;;;6.22;3.60;;;22.80;53.10;;;;;;5008290;28;20476;-55
2022/08/07 04:27:40;;;;;;;6.47;3.80;;;22.80;53.10;;;;;;5023662;28;20493;-53
2022/08/07 04:30:07;;;;;;;6.40;3.65;;;22.70;53.10;;;;;;5053990;28;20464;-54
2022/08/07 04:32:33;;;;;;;6.28;3.75;;;22.70;53.00;;;;;;5025995;28;20095;-54
2022/08/07 04:34:58;;;;;;;6.22;3.83;;;22.70;53.10;;;;;;5025137;28;20482;-53
2022/08/07 04:37:24;;;;;;;7.45;3.65;;;22.80;53.20;;;;;;5024969;28;20419;-52
2022/08/07 04:39:49;;;;;;;6.75;3.60;;;22.70;53.10;;;;;;5025183;28;20493;-53
2022/08/07 04:42:15;;;;;;;6.00;3.47;;;22.70;53.10;;;;;;5025865;28;20048;-54
2022/08/07 04:44:41;;;;;;;6.10;3.92;;;22.70;53.10;;;;;;5025464;28;20041;-54
2022/08/07 04:47:18;;;;;;;6.07;3.60;;;22.70;53.20;;;;;;5028253;28;20541;-53
2022/08/07 04:50:15;;;;;;;5.18;3.15;;;22.70;53.10;;;;;;5008538;28;20021;-54
2022/08/07 04:52:45;;;;;;;6.53;3.80;;;22.70;53.10;;;;;;5025843;28;20091;-53
2022/08/07 04:55:11;;;;;;;7.60;3.75;;;22.70;53.20;;;;;;5052515;28;20040;-53
2022/08/07 04:57:54;;;;;;;6.55;4.00;;;22.70;53.20;;;;;;5024022;28;20133;-53
2022/08/07 05:00:40;;;;;;;7.07;3.70;;;22.70;53.20;;;;;;5008207;28;20025;-53
2022/08/07 05:03:15;;;;;;;7.03;3.90;;;22.70;53.20;;;;;;5035363;28;20037;-54
2022/08/07 05:05:49;;;;;;;6.32;3.55;;;22.70;53.30;;;;;;5038018;28;20064;-53
2022/08/07 05:08:25;;;;;;;6.38;3.88;;;22.70;53.40;;;;;;5037736;28;20323;-54
2022/08/07 05:11:18;;;;;;;7.40;3.80;;;22.60;53.30;;;;;;5034555;28;20446;-54
2022/08/07 05:13:58;;;;;;;6.60;3.67;;;22.60;53.30;;;;;;5036973;28;20172;-55
2022/08/07 05:16:24;;;;;;;6.35;3.72;;;22.60;53.20;;;;;;5022903;28;20025;-53
2022/08/07 05:18:55;;;;;;;7.88;3.60;;;22.60;53.20;;;;;;5023151;28;20033;-54
2022/08/07 05:21:22;;;;;;;5.95;3.40;;;22.60;53.30;;;;;;5023889;28;20034;-53
2022/08/07 05:24:02;;;;;;;6.72;3.72;;;22.60;53.30;;;;;;5033304;28;20056;-53
2022/08/07 05:26:28;;;;;;;6.43;3.55;;;22.60;53.20;;;;;;5027702;28;20066;-53
2022/08/07 05:28:57;;;;;;;6.13;3.50;;;22.60;53.30;;;;;;5036059;28;20107;-53
2022/08/07 05:31:25;;;;;;;7.28;4.18;;;22.60;53.40;;;;;;5036649;28;20053;-53
2022/08/07 05:33:51;;;;;;;7.05;3.80;;;22.60;53.30;;;;;;5040089;28;20061;-51
2022/08/07 05:36:18;;;;;;;6.15;3.70;;;22.60;53.30;;;;;;5036955;28;20092;-53
2022/08/07 05:38:43;;;;;;;6.65;3.83;;;22.60;53.30;;;;;;5043301;28;20100;-53
2022/08/07 05:41:10;;;;;;;6.90;3.58;;;22.60;53.40;;;;;;5028514;28;20175;-53
2022/08/07 05:43:36;;;;;;;5.97;3.67;;;22.60;53.30;;;;;;5030366;28;20030;-53
2022/08/07 05:46:02;;;;;;;6.15;3.40;;;22.50;53.30;;;;;;5014089;28;20124;-53
2022/08/07 05:48:28;;;;;;;7.25;3.47;;;22.60;53.40;;;;;;5027236;28;20184;-53
2022/08/07 05:50:58;;;;;;;5.78;3.55;;;22.50;53.30;;;;;;5028485;28;20524;-52
2022/08/07 05:53:24;;;;;;;6.45;3.53;;;22.50;53.30;;;;;;5026668;28;20037;-54
2022/08/07 05:55:50;;;;;;;7.28;3.70;;;22.50;53.40;;;;;;5026668;28;20410;-49
2022/08/07 05:58:16;;;;;;;5.95;3.70;;;22.50;53.40;;;;;;5025270;28;20041;-53
2022/08/07 06:00:41;;;;;;;5.97;3.70;;;22.50;53.30;;;;;;5026326;28;20026;-53
2022/08/07 06:03:07;;;;;;;5.70;3.55;;;22.50;53.40;;;;;;5056624;28;20037;-53
2022/08/07 06:05:33;;;;;;;6.57;3.50;;;22.50;53.30;;;;;;5024245;28;20033;-53
2022/08/07 06:07:59;;;;;;;5.40;3.28;;;22.50;53.40;;;;;;5029201;28;20040;-53
2022/08/07 06:10:25;;;;;;;7.00;3.95;;;22.50;53.40;;;;;;5029333;28;20033;-52
2022/08/07 06:12:51;;;;;;;7.05;3.67;;;22.50;53.40;;;;;;5025979;28;20024;-50
2022/08/07 06:15:16;;;;;;;6.30;3.80;;;22.50;53.40;;;;;;5025578;28;20044;-53
2022/08/07 06:17:42;;;;;;;5.68;3.45;;;22.50;53.40;;;;;;5026452;28;20032;-52
2022/08/07 06:20:09;;;;;;;6.60;3.60;;;22.50;53.40;;;;;;5057864;28;20177;-53
2022/08/07 06:22:35;;;;;;;5.82;3.60;;;22.50;54.40;;;;;;5014228;28;20086;-53
2022/08/07 06:25:01;;;;;;;5.85;3.70;;;22.50;53.40;;;;;;5027558;28;20041;-54
2022/08/07 06:27:28;;;;;;;5.85;3.50;;;22.50;53.40;;;;;;5029340;28;20466;-53
2022/08/07 06:29:53;;;;;;;6.03;3.63;;;22.50;53.40;;;;;;5026670;28;20129;-52
2022/08/07 06:32:19;;;;;;;6.90;3.75;;;22.50;53.40;;;;;;5025311;28;20109;-57
2022/08/07 06:34:45;;;;;;;6.57;3.70;;;22.50;53.40;;;;;;5023325;28;20087;-52
2022/08/07 06:37:10;;;;;;;6.30;3.65;;;22.50;53.40;;;;;;5026300;28;20028;-53
2022/08/07 06:39:37;;;;;;;6.70;3.70;;;22.50;53.50;;;;;;5026612;28;20457;-53
2022/08/07 06:42:28;;;;;;;6.30;3.45;;;22.50;53.40;;;;;;5027965;28;20064;-54
2022/08/07 06:44:54;;;;;;;6.20;3.40;;;22.40;53.30;;;;;;5027093;28;20509;-52
2022/08/07 06:47:20;;;;;;;6.10;3.75;;;22.40;53.40;;;;;;5025871;28;20033;-53
2022/08/07 06:49:45;;;;;;;6.57;3.80;;;22.40;53.40;;;;;;5023406;28;20104;-52
2022/08/07 06:52:11;;;;;;;6.22;3.50;;;22.40;53.40;;;;;;5027132;28;20083;-53
2022/08/07 06:54:37;;;;;;;5.57;3.38;;;22.40;53.40;;;;;;5023719;28;20270;-52
2022/08/07 06:57:03;;;;;;;6.45;3.90;;;22.50;53.50;;;;;;5026494;28;20522;-52
2022/08/07 06:59:31;;;;;;;6.35;3.63;;;22.40;53.50;;;;;;5023484;28;20041;-53
2022/08/07 07:01:57;;;;;;;6.53;3.60;;;22.40;53.50;;;;;;5023827;28;20025;-52
2022/08/07 07:04:23;;;;;;;5.53;3.35;;;22.40;53.50;;;;;;5023944;28;20141;-53
2022/08/07 07:06:49;;;;;;;6.53;3.63;;;22.40;53.50;;;;;;5049250;28;20053;-53
2022/08/07 07:09:21;;;;;;;5.82;3.38;;;22.40;53.60;;;;;;5022622;28;20502;-54
2022/08/07 07:11:52;;;;;;;6.28;3.78;;;22.40;53.50;;;;;;5026272;28;20406;-52
2022/08/07 07:14:18;;;;;;;5.78;3.35;;;22.40;53.60;;;;;;5026169;28;20037;-52
2022/08/07 07:16:43;;;;;;;5.90;3.33;;;22.40;54.60;;;;;;5023515;28;20116;-52
2022/08/07 07:19:09;;;;;;;6.93;3.80;;;22.40;53.60;;;;;;5025238;28;20033;-51
2022/08/07 07:21:36;;;;;;;6.07;3.65;;;22.40;53.60;;;;;;5027425;28;20033;-53
2022/08/07 07:24:01;;;;;;;6.50;3.78;;;22.40;53.60;;;;;;5036864;28;20121;-53
2022/08/07 07:26:28;;;;;;;6.00;3.67;;;22.40;54.30;;;;;;5022492;28;20545;-53
2022/08/07 07:28:57;;;;;;;5.47;3.30;;;22.40;53.60;;;;;;5039423;28;20136;-53
2022/08/07 07:31:30;;;;;;;6.43;3.53;;;22.40;53.60;;;;;;5024096;28;20706;-53
2022/08/07 07:33:58;;;;;;;6.00;3.33;;;22.40;53.60;;;;;;5028077;28;20041;-53
2022/08/07 07:36:24;;;;;;;7.07;3.72;;;22.40;53.70;;;;;;5050254;28;20045;-54
2022/08/07 07:38:50;;;;;;;6.50;3.70;;;22.40;53.60;;;;;;5024772;28;20025;-54
2022/08/07 07:41:16;;;;;;;6.72;3.63;;;22.40;53.60;;;;;;5025934;28;20035;-53
2022/08/07 07:43:42;;;;;;;6.45;3.75;;;22.40;53.70;;;;;;5023378;28;20104;-55
2022/08/07 07:46:09;;;;;;;6.80;3.58;;;22.40;53.60;;;;;;5025943;28;20037;-53
2022/08/07 07:48:35;;;;;;;6.40;3.33;;;22.40;53.60;;;;;;5022818;28;20095;-52
2022/08/07 07:51:01;;;;;;;7.22;3.47;;;22.40;53.70;;;;;;5024344;28;20510;-54
2022/08/07 07:53:27;;;;;;;6.35;3.40;;;22.40;53.70;;;;;;5050813;28;20106;-54
2022/08/07 07:55:54;;;;;;;7.75;3.85;;;22.40;53.80;;;;;;5023846;28;20081;-55
2022/08/07 07:58:20;;;;;;;5.80;3.55;;;22.40;53.90;;;;;;5023783;28;20017;-53
2022/08/07 08:00:46;;;;;;;6.72;3.75;;;22.40;53.90;;;;;;5020700;28;20040;-54
2022/08/07 08:03:12;;;;;;;8.15;4.05;;;22.40;53.90;;;;;;5024275;28;20022;-55
2022/08/07 08:05:40;;;;;;;7.20;3.95;;;22.40;55.20;;;;;;5024857;28;20037;-53
2022/08/07 08:08:07;;;;;;;7.18;4.18;;;22.50;55.80;;;;;;5025568;28;20052;-54
2022/08/07 08:10:34;;;;;;;7.63;3.72;;;22.50;56.10;;;;;;5029697;28;20052;-53
2022/08/07 08:12:59;;;;;;;6.88;4.28;;;22.50;55.80;;;;;;5026112;28;20025;-54
2022/08/07 08:15:30;;;;;;;8.10;3.92;;;22.50;55.90;;;;;;5035805;28;20052;-55
2022/08/07 08:17:56;;;;;;;8.18;4.10;;;22.60;55.90;;;;;;5025478;28;20024;-55
2022/08/07 08:20:21;;;;;;;8.38;3.92;;;22.60;55.80;;;;;;5053486;28;20033;-53
2022/08/07 08:28:35;;;;;;;;;;;22.60;55.60;;;;;;5023398;28;20433;-56
2022/08/07 08:31:01;;;;;;;8.82;4.50;;;22.60;55.70;;;;;;5024071;28;20054;-56
2022/08/07 08:33:29;;;;;;;9.50;4.80;;;22.50;55.90;;;;;;5026292;28;20507;-57
2022/08/07 08:35:55;;;;;;;10.77;5.22;;;22.50;56.20;;;;;;5024872;28;20021;-56
2022/08/07 08:38:24;;;;;;;9.57;5.25;;;22.50;56.10;;;;;;5037671;28;20040;-56
2022/08/07 08:41:00;;;;;;;10.55;4.70;;;22.50;56.10;;;;;;5023085;28;20048;-56
2022/08/07 08:43:29;;;;;;;10.70;4.97;;;22.50;56.20;;;;;;5033411;28;20025;-56
2022/08/07 08:45:58;;;;;;;10.82;5.38;;;22.50;56.30;;;;;;5024749;28;20642;-56
2022/08/07 08:48:28;;;;;;;12.13;5.55;;;22.50;56.10;;;;;;5022797;28;20101;-56
2022/08/07 08:51:06;;;;;;;11.30;5.40;;;22.50;55.90;;;;;;5023037;28;20025;-57
2022/08/07 08:53:43;;;;;;;9.88;5.05;;;22.50;55.90;;;;;;5024107;28;20042;-57
2022/08/07 08:56:22;;;;;;;9.57;4.85;;;22.50;55.90;;;;;;5020707;28;20042;-57
2022/08/07 08:59:02;;;;;;;9.07;4.68;;;22.50;55.80;;;;;;5007607;28;20029;-58
2022/08/07 09:01:46;;;;;;;8.60;4.78;;;22.60;56.00;;;;;;5018161;28;20038;-57
2022/08/07 09:04:25;;;;;;;12.23;5.07;;;22.60;55.90;;;;;;5020367;28;20115;-57
2022/08/07 09:07:00;;;;;;;9.43;4.80;;;22.60;55.70;;;;;;5024809;28;20140;-57
2022/08/07 09:09:54;;;;;;;11.32;4.75;;;22.60;55.70;;;;;;5027009;28;20508;-57
2022/08/07 09:12:50;;;;;;;11.48;4.63;;;22.60;55.60;;;;;;5021362;28;20069;-57
2022/08/07 09:15:37;;;;;;;13.25;4.97;;;22.60;56.60;;;;;;5054966;28;20813;-56
2022/08/07 09:18:26;;;;;;;11.57;4.72;;;22.60;55.60;;;;;;5027396;28;20048;-57
2022/08/07 09:21:28;;;;;;;9.23;4.63;;;22.60;55.60;;;;;;5020937;28;20410;-57
2022/08/07 09:24:12;;;;;;;13.52;5.35;;;22.60;55.90;;;;;;5024733;28;20068;-57
2022/08/07 09:26:56;;;;;;;11.93;4.90;;;22.60;57.30;;;;;;5023764;28;20648;-56
2022/08/07 09:29:32;;;;;;;11.70;5.15;;;22.70;57.10;;;;;;5029060;28;20032;-56
2022/08/07 09:32:26;;;;;;;9.93;4.88;;;22.70;56.60;;;;;;5036583;28;20516;-56
2022/08/07 09:35:16;;;;;;;10.75;5.03;;;22.70;56.80;;;;;;5042877;28;20034;-57
2022/08/07 09:37:49;;;;;;;11.43;4.90;;;22.70;56.90;;;;;;5028547;28;20028;-57
2022/08/07 09:40:21;;;;;;;9.82;5.07;;;22.80;56.70;;;;;;5023467;28;20072;-57
2022/08/07 09:42:57;;;;;;;10.75;5.03;;;22.80;57.10;;;;;;5025263;28;20037;-55
2022/08/07 09:45:46;;;;;;;11.45;5.10;;;22.90;57.20;;;;;;5050171;28;20038;-54
2022/08/07 09:48:45;;;;;;;11.45;5.22;;;22.90;57.40;;;;;;5038943;28;20041;-56
2022/08/07 09:51:30;;;;;;;13.27;5.13;;;23.00;57.30;;;;;;5038437;28;20029;-55
2022/08/07 09:53:57;;;;;;;12.02;4.82;;;23.00;57.10;;;;;;5039396;28;20713;-55
2022/08/07 09:56:35;;;;;;;9.52;4.60;;;23.00;57.10;;;;;;5034328;28;20029;-55
2022/08/07 09:59:29;;;;;;;10.25;4.65;;;23.10;57.10;;;;;;5028785;28;20068;-55
2022/08/07 10:02:10;;;;;;;11.90;4.80;;;23.10;56.90;;;;;;5033459;28;20033;-56
2022/08/07 10:04:44;;;;;;;12.23;5.15;;;23.10;56.80;;;;;;5045154;28;20039;-55
2022/08/07 10:07:15;;;;;;;11.10;4.68;;;23.10;56.50;;;;;;5042550;28;20037;-55
2022/08/07 10:09:47;;;;;;;8.60;4.22;;;23.10;56.70;;;;;;5035442;28;20031;-55
2022/08/07 10:12:50;;;;;;;10.60;5.13;;;23.20;56.70;;;;;;5037634;28;20043;-55
2022/08/07 10:15:21;;;;;;;11.45;5.20;;;23.20;56.80;;;;;;5039296;28;20052;-55
2022/08/07 10:18:07;;;;;;;12.50;5.07;;;23.20;56.80;;;;;;5033894;28;20418;-55
2022/08/07 10:20:35;;;;;;;9.77;4.57;;;23.30;56.70;;;;;;5039372;28;20030;-56
2022/08/07 10:23:05;;;;;;;12.13;4.85;;;23.30;56.70;;;;;;5043611;28;20025;-55
2022/08/07 10:25:49;;;;;;;10.52;4.57;;;23.30;56.60;;;;;;5028358;28;20065;-53
2022/08/07 10:28:28;;;;;;;9.95;4.25;;;23.40;56.60;;;;;;5026835;28;20025;-56
2022/08/07 10:31:03;;;;;;;13.23;4.97;;;23.50;56.30;;;;;;5047209;28;20079;-56
2022/08/07 10:33:53;;;;;;;11.20;4.30;;;23.50;56.30;;;;;;5026184;28;20080;-56
2022/08/07 10:36:33;;;;;;;7.93;3.97;;;23.50;56.00;;;;;;5026517;28;20083;-52
2022/08/07 10:39:33;;;;;;;10.80;4.43;;;23.50;55.80;;;;;;5017308;28;20045;-56
2022/08/07 10:42:36;;;;;;;9.15;3.80;;;23.60;55.70;;;;;;5025947;28;20092;-47
2022/08/07 10:45:06;;;;;;;10.30;3.85;;;23.70;54.80;;;;;;5024701;28;20132;-53
2022/08/07 10:47:46;;;;;;;10.75;3.92;;;23.70;54.90;;;;;;5023964;28;20471;-53
2022/08/07 10:50:16;;;;;;;9.52;3.53;;;23.70;54.60;;;;;;5053763;28;20025;-57
2022/08/07 10:53:06;;;;;;;12.68;3.60;;;23.80;54.40;;;;;;5052781;28;20165;-49
2022/08/07 10:55:49;;;;;;;10.00;3.67;;;23.80;54.10;;;;;;5023607;28;20038;-48
2022/08/07 10:58:38;;;;;;;9.63;3.45;;;23.80;53.60;;;;;;5023390;28;20029;-51
2022/08/07 11:01:04;;;;;;;14.73;4.32;;;23.80;53.80;;;;;;5021960;28;20040;-49
2022/08/07 11:03:47;;;;;;;7.93;3.55;;;23.80;54.00;;;;;;5024200;28;20026;-49
2022/08/07 11:06:19;;;;;;;10.75;3.70;;;23.80;53.40;;;;;;5020554;28;20057;-50
2022/08/07 11:08:53;;;;;;;9.52;3.53;;;23.90;53.80;;;;;;5023402;28;20057;-51
2022/08/07 11:11:30;;;;;;;14.85;4.00;;;24.00;53.50;;;;;;5005039;28;20689;-49
2022/08/07 11:14:15;;;;;;;13.63;4.10;;;24.00;53.70;;;;;;5023058;28;20033;-52
2022/08/07 11:16:57;;;;;;;8.73;4.15;;;24.00;53.40;;;;;;5022966;28;20092;-50
2022/08/07 11:19:32;;;;;;;11.88;4.10;;;23.90;54.60;;;;;;5024980;28;20552;-50
2022/08/07 11:22:05;;;;;;;;;;;23.90;51.80;;;;;;5024136;28;20033;-50
2022/08/07 11:24:52;;;;;;;13.40;3.70;;;23.90;52.00;;;;;;5024358;28;19993;-48
2022/08/07 11:27:22;;;;;;;13.65;3.47;;;24.00;50.70;;;;;;5049894;28;20029;-49
2022/08/07 11:30:00;;;;;;;10.10;3.65;;;24.00;51.00;;;;;;5024711;28;20032;-52
2022/08/07 11:32:34;;;;;;;12.88;3.30;;;24.00;50.10;;;;;;5026909;28;20274;-53
2022/08/07 11:35:21;;;;;;;13.95;3.67;;;24.00;50.20;;;;;;5024871;28;20497;-49
2022/08/07 11:37:47;;;;;;;8.63;3.85;;;24.10;50.50;;;;;;5034843;28;20422;-53
2022/08/07 11:40:51;;;;;;;9.77;4.00;;;24.10;51.70;;;;;;5026742;28;20021;-49
2022/08/07 11:43:31;;;;;;;12.32;4.20;;;24.10;50.70;;;;;;5022724;28;20033;-50
2022/08/07 11:46:21;;;;;;;10.18;3.80;;;24.10;50.80;;;;;;5025030;28;20041;-51
2022/08/07 11:49:17;;;;;;;9.30;4.30;;;24.10;51.20;;;;;;5022921;28;20552;-52
2022/08/07 11:51:58;;;;;;;11.32;4.35;;;24.10;51.40;;;;;;5023463;28;20025;-53
2022/08/07 11:54:28;;;;;;;11.77;4.47;;;24.10;51.30;;;;;;5021705;28;20407;-50
2022/08/07 11:57:30;;;;;;;9.60;4.55;;;24.20;51.30;;;;;;5024990;28;20028;-52
2022/08/07 12:00:17;;;;;;;9.10;4.53;;;24.20;51.40;;;;;;5019840;28;20029;-52
2022/08/07 12:03:09;;;;;;;10.60;4.50;;;24.20;51.50;;;;;;5021970;28;20041;-54
2022/08/07 12:06:25;;;;;;;17.05;6.32;;;24.20;51.10;;;;;;5023178;28;20048;-53
2022/08/07 12:09:13;;;;;;;14.40;5.70;;;24.20;51.20;;;;;;5036680;28;20071;-54
2022/08/07 12:12:03;;;;;;;29.15;8.15;;;24.20;51.20;;;;;;5037570;28;20041;-51
2022/08/07 12:14:29;;;;;;;34.05;8.77;;;24.20;51.00;;;;;;5034056;28;20041;-50
2022/08/07 12:16:59;;;;;;;28.98;8.32;;;24.30;51.20;;;;;;5021503;28;20064;-54
2022/08/07 12:19:27;;;;;;;26.20;7.72;;;24.30;51.20;;;;;;5008590;28;20493;-52
2022/08/07 12:22:13;;;;;;;20.27;6.45;;;24.40;51.10;;;;;;5036529;28;20079;-53
2022/08/07 12:27:47;;;;;;;15.75;5.45;;;24.40;51.00;;;;;;5031137;28;20449;-52
2022/08/07 12:30:14;;;;;;;14.20;4.90;;;24.40;51.10;;;;;;5040392;28;20041;-53
2022/08/07 12:32:59;;;;;;;13.77;4.88;;;24.50;50.60;;;;;;5041773;28;20021;-52
2022/08/07 12:35:25;;;;;;;9.15;4.47;;;24.50;50.50;;;;;;5027307;28;20463;-53
2022/08/07 12:37:51;;;;;;;17.75;5.13;;;24.50;51.00;;;;;;5024774;28;20029;-51
2022/08/07 12:40:19;;;;;;;10.48;4.85;;;24.50;51.00;;;;;;5026349;28;20039;-54
2022/08/07 12:42:45;;;;;;;18.17;4.65;;;24.60;50.80;;;;;;5026933;28;20026;-50
2022/08/07 12:45:21;;;;;;;16.98;4.97;;;24.60;50.30;;;;;;5021736;28;20041;-54
2022/08/07 12:48:31;;;;;;;9.70;4.30;;;24.60;47.10;;;;;;5029593;28;20530;-53
2022/08/07 12:51:10;;;;;;;11.50;4.05;;;24.60;45.80;;;;;;5008508;28;20037;-52
2022/08/07 12:53:40;;;;;;;9.45;3.78;;;24.60;44.20;;;;;;5017391;28;20030;-51
2022/08/07 12:56:09;;;;;;;10.73;4.00;;;24.60;43.80;;;;;;4997867;28;20061;-53
2022/08/07 12:58:39;;;;;;;9.40;4.10;;;24.60;43.20;;;;;;4999791;28;20112;-50
2022/08/07 13:01:05;;;;;;;7.63;3.88;;;24.60;43.30;;;;;;4984036;28;20030;-52
2022/08/07 13:04:04;;;;;;;8.27;4.20;;;24.70;43.60;;;;;;5016022;28;20037;-51
2022/08/07 13:07:06;;;;;;;9.30;4.15;;;24.70;43.20;;;;;;5014870;28;20037;-53
2022/08/07 13:09:50;;;;;;;8.93;3.75;;;24.70;42.60;;;;;;5017449;28;20189;-52
2022/08/07 13:12:32;;;;;;;14.45;4.28;;;24.70;42.40;;;;;;5014701;28;20056;-54
2022/08/07 13:15:06;;;;;;;8.65;4.15;;;24.70;41.80;;;;;;5008995;28;20034;-54
2022/08/07 13:17:53;;;;;;;9.38;4.15;;;24.70;41.60;;;;;;5015590;28;20041;-52